createdAt,value
2022-08-09T00:00:20.304Z,5.03
2022-08-09T00:06:18.347Z,4.15
2022-08-09T00:08:32.198Z,4.85
2022-08-09T00:11:00.908Z,5.30
2022-08-09T00:13:40.819Z,5.43
2022-08-09T00:16:08.343Z,5.50
2022-08-09T00:18:47.016Z,5.47
2022-08-09T00:21:15.293Z,5.60
2022-08-09T00:23:57.598Z,5.75
2022-08-09T00:26:34.120Z,5.78
2022-08-09T00:29:02.356Z,5.88
2022-08-09T00:31:57.577Z,5.97
2022-08-09T00:34:23.095Z,5.78
2022-08-09T00:37:00.196Z,4.18
2022-08-09T00:40:09.229Z,3.30
2022-08-09T00:44:14.997Z,4.40
2022-08-09T00:45:16.507Z,4.43
2022-08-09T00:47:47.574Z,4.50
2022-08-09T00:50:15.360Z,4.38
2022-08-09T00:52:49.125Z,4.00
2022-08-09T00:56:03.069Z,4.97
2022-08-09T00:58:14.705Z,4.65
2022-08-09T01:00:51.614Z,5.53
2022-08-09T01:03:43.185Z,5.00
2022-08-09T01:06:18.437Z,5.20
2022-08-09T01:08:59.763Z,6.13
2022-08-09T01:11:53.093Z,5.60
2022-08-09T01:15:06.026Z,5.50
2022-08-09T01:17:47.056Z,5.22
2022-08-09T01:20:35.982Z,5.70
2022-08-09T01:23:03.081Z,5.80
2022-08-09T01:25:51.122Z,5.72
2022-08-09T01:28:20.578Z,5.18
2022-08-09T01:30:58.231Z,4.45
2022-08-09T01:33:28.647Z,3.72
2022-08-09T01:36:22.105Z,3.60
2022-08-09T01:38:57.283Z,4.22
2022-08-09T01:41:38.148Z,4.10
2022-08-09T01:44:23.350Z,3.50
2022-08-09T01:46:58.108Z,4.20
2022-08-09T01:49:31.993Z,4.10
2022-08-09T01:52:15.122Z,4.47
2022-08-09T01:54:47.387Z,5.40
2022-08-09T01:57:32.230Z,4.75
2022-08-09T02:00:19.134Z,4.75
2022-08-09T02:03:03.298Z,5.13
2022-08-09T02:05:38.032Z,5.40
2022-08-09T02:08:39.694Z,5.20
2022-08-09T02:11:17.245Z,5.65
2022-08-09T02:14:06.316Z,5.72
2022-08-09T02:16:59.133Z,5.32
2022-08-09T02:22:10.792Z,5.18
2022-08-09T02:24:53.385Z,5.85
2022-08-09T02:27:57.600Z,6.03
2022-08-09T02:30:35.976Z,5.32
2022-08-09T02:33:08.009Z,4.10
2022-08-09T02:36:03.315Z,4.05
2022-08-09T02:38:34.897Z,5.00
2022-08-09T02:41:20.071Z,5.22
2022-08-09T02:43:54.596Z,4.15
2022-08-09T02:46:32.056Z,3.72
2022-08-09T02:49:03.398Z,3.90
2022-08-09T02:51:40.795Z,3.60
2022-08-09T02:54:13.758Z,4.30
2022-08-09T02:56:51.308Z,4.25
2022-08-09T02:59:26.394Z,5.53
2022-08-09T03:02:16.841Z,4.70
2022-08-09T03:04:45.196Z,4.72
2022-08-09T03:07:20.100Z,5.47
2022-08-09T03:09:53.986Z,4.85
2022-08-09T03:12:31.149Z,4.75
2022-08-09T03:14:59.018Z,5.47
2022-08-09T03:17:27.455Z,5.55
2022-08-09T03:20:05.291Z,5.35
2022-08-09T03:22:41.400Z,5.20
2022-08-09T03:25:57.896Z,5.55
2022-08-09T03:28:14.616Z,5.05
2022-08-09T03:30:53.082Z,5.32
2022-08-09T03:33:20.633Z,5.80
2022-08-09T03:36:12.491Z,5.90
2022-08-09T03:38:44.471Z,5.60
2022-08-09T03:41:19.124Z,5.38
2022-08-09T03:44:03.977Z,5.57
2022-08-09T03:46:43.225Z,6.13
2022-08-09T03:49:11.085Z,5.75
2022-08-09T03:51:55.032Z,5.53
2022-08-09T03:54:34.618Z,5.60
2022-08-09T03:57:04.210Z,5.63
2022-08-09T03:59:53.568Z,5.03
2022-08-09T04:02:26.940Z,5.13
2022-08-09T04:05:17.281Z,5.63
2022-08-09T04:07:56.984Z,5.03
2022-08-09T04:10:31.963Z,5.25
2022-08-09T04:13:11.479Z,4.80
2022-08-09T04:16:19.632Z,5.40
2022-08-09T04:18:33.776Z,4.68
2022-08-09T04:21:06.994Z,4.22
2022-08-09T04:23:34.563Z,4.45
2022-08-09T04:26:01.686Z,4.40
2022-08-09T04:28:36.555Z,4.55
2022-08-09T04:31:12.952Z,4.20
2022-08-09T04:33:56.637Z,2.50
2022-08-09T04:36:40.417Z,2.63
2022-08-09T04:39:24.040Z,2.78
2022-08-09T04:41:51.537Z,3.10
2022-08-09T04:44:18.714Z,3.05
2022-08-09T04:46:58.603Z,2.65
2022-08-09T04:49:52.662Z,3.20
2022-08-09T04:52:27.701Z,3.47
2022-08-09T04:55:09.919Z,3.28
2022-08-09T04:57:59.449Z,3.13
2022-08-09T05:00:34.190Z,3.38
2022-08-09T05:03:40.635Z,3.22
2022-08-09T05:06:04.439Z,3.30
2022-08-09T05:08:43.923Z,3.22
2022-08-09T05:11:15.462Z,3.25
2022-08-09T05:16:17.568Z,3.17
2022-08-09T05:18:58.663Z,3.22
2022-08-09T05:21:36.647Z,3.20
2022-08-09T05:24:14.620Z,4.07
2022-08-09T05:26:48.212Z,5.28
2022-08-09T05:29:24.109Z,4.53
2022-08-09T05:31:59.498Z,4.55
2022-08-09T05:34:32.721Z,4.47
2022-08-09T05:37:14.208Z,5.13
2022-08-09T05:39:44.113Z,5.07
2022-08-09T05:42:17.966Z,4.90
2022-08-09T05:44:56.255Z,3.90
2022-08-09T05:47:25.279Z,3.88
2022-08-09T05:50:34.913Z,4.43
2022-08-09T05:52:53.587Z,4.28
2022-08-09T05:55:23.337Z,5.20
2022-08-09T05:57:59.256Z,5.70
2022-08-09T06:00:28.778Z,4.60
2022-08-09T06:02:57.653Z,5.40
2022-08-09T06:05:57.143Z,5.60
2022-08-09T06:08:24.909Z,5.85
2022-08-09T06:11:02.348Z,5.32
2022-08-09T06:13:44.146Z,5.35
2022-08-09T06:16:20.239Z,5.13
2022-08-09T06:18:47.462Z,5.38
2022-08-09T06:21:16.331Z,4.72
2022-08-09T17:01:36.852Z,1.70
2022-08-09T17:04:05.410Z,1.85
2022-08-09T17:06:33.874Z,1.55
2022-08-09T17:09:45.116Z,1.45
2022-08-09T17:12:14.143Z,1.60
2022-08-09T17:14:50.611Z,1.80
2022-08-09T17:17:26.908Z,1.70
2022-08-09T17:20:30.202Z,1.48
2022-08-09T17:22:51.835Z,1.80
2022-08-09T17:25:35.658Z,1.42
2022-08-09T17:28:06.189Z,1.80
2022-08-09T17:30:40.848Z,1.50
2022-08-09T17:33:22.268Z,1.85
2022-08-09T17:35:56.841Z,1.80
2022-08-09T17:38:31.968Z,2.30
2022-08-09T17:41:09.038Z,1.88
2022-08-09T17:43:37.323Z,2.03
2022-08-09T17:46:08.681Z,2.42
2022-08-09T17:48:52.107Z,2.25
2022-08-09T17:51:20.261Z,2.30
2022-08-09T17:56:27.068Z,2.40
2022-08-09T17:59:16.818Z,2.60
2022-08-09T18:02:10.886Z,2.58
2022-08-09T18:04:49.804Z,2.75
2022-08-09T18:07:23.302Z,3.05
2022-08-09T18:10:05.096Z,2.72
2022-08-09T18:12:40.439Z,3.20
2022-08-09T18:16:04.867Z,2.67
2022-08-09T18:18:25.776Z,2.83
2022-08-09T18:21:18.909Z,2.78
2022-08-09T18:24:10.591Z,3.42
2022-08-09T18:26:45.917Z,2.70
2022-08-09T18:30:41.927Z,3.28
2022-08-09T18:32:10.963Z,3.25
2022-08-09T18:34:39.040Z,2.88
2022-08-09T18:37:10.162Z,3.78
2022-08-09T18:40:04.051Z,2.83
2022-08-09T18:42:31.550Z,3.17
2022-08-09T18:46:45.045Z,3.03
2022-08-09T18:48:01.200Z,2.72
2022-08-09T18:50:51.373Z,2.90
2022-08-09T18:53:22.343Z,3.50
2022-08-09T18:56:05.256Z,3.00
2022-08-09T18:58:39.086Z,2.90
2022-08-09T19:01:19.837Z,3.50
2022-08-09T19:04:01.035Z,2.90
2022-08-09T19:06:39.695Z,3.53
2022-08-09T19:09:20.575Z,3.67
2022-08-09T19:12:13.755Z,3.47
2022-08-09T19:14:48.201Z,3.20
2022-08-09T19:17:21.810Z,3.28
2022-08-09T19:19:58.696Z,3.50
2022-08-09T19:22:35.183Z,3.40
2022-08-09T19:25:07.672Z,3.45
2022-08-09T19:27:46.872Z,3.67
2022-08-09T19:30:23.040Z,3.60
2022-08-09T19:33:04.378Z,4.07
2022-08-09T19:35:58.298Z,16.77
2022-08-09T19:38:36.182Z,14.50
2022-08-09T19:41:07.412Z,12.88
2022-08-09T19:43:58.246Z,10.93
2022-08-09T19:46:50.942Z,9.27
2022-08-09T19:50:08.840Z,9.18
2022-08-09T19:52:14.409Z,7.45
2022-08-09T19:54:47.844Z,4.80
2022-08-09T19:57:17.649Z,4.43
2022-08-09T20:00:07.922Z,4.82
2022-08-09T20:04:09.784Z,3.92
2022-08-09T20:05:45.924Z,4.15
2022-08-09T20:08:16.212Z,3.90
2022-08-09T20:11:07.677Z,3.90
2022-08-09T20:13:37.043Z,4.40
2022-08-09T20:16:34.222Z,4.35
2022-08-09T20:21:56.038Z,4.72
2022-08-09T20:27:29.219Z,4.30
2022-08-09T20:30:05.933Z,4.38
2022-08-09T20:32:39.214Z,4.75
2022-08-09T20:35:13.849Z,4.18
2022-08-09T20:38:18.556Z,4.50
2022-08-09T20:40:41.083Z,4.53
2022-08-09T20:43:18.731Z,5.07
2022-08-09T20:46:15.581Z,4.55
2022-08-09T20:48:46.333Z,4.60
2022-08-09T20:51:20.776Z,5.38
2022-08-09T20:53:48.823Z,5.05
2022-08-09T20:56:20.850Z,4.93
2022-08-09T20:59:00.059Z,5.50
2022-08-09T21:01:50.500Z,5.47
2022-08-09T21:05:52.069Z,5.63
2022-08-09T21:07:15.035Z,6.05
2022-08-09T21:09:56.168Z,5.47
2022-08-09T21:15:23.365Z,5.50
2022-08-09T21:18:11.943Z,6.53
2022-08-09T21:20:54.085Z,5.55
2022-08-09T21:23:21.889Z,6.38
2022-08-09T21:26:11.045Z,6.28
2022-08-09T21:28:38.341Z,6.15
2022-08-09T21:31:17.959Z,6.20
2022-08-09T21:33:58.066Z,6.78
2022-08-09T21:38:57.912Z,6.30
2022-08-09T21:42:03.746Z,5.72
2022-08-09T21:44:32.763Z,6.18
2022-08-09T21:47:10.035Z,6.28
2022-08-09T21:49:40.379Z,6.85
2022-08-09T21:52:20.252Z,7.03
2022-08-09T21:54:50.829Z,7.20
2022-08-09T21:57:39.311Z,6.78
2022-08-09T22:00:35.908Z,7.25
2022-08-09T22:03:19.102Z,7.13
2022-08-09T22:05:47.567Z,7.28
2022-08-09T22:08:26.921Z,7.93
2022-08-09T22:11:50.167Z,7.10
2022-08-09T22:13:55.966Z,7.15
2022-08-09T22:16:25.947Z,7.07
2022-08-09T22:18:55.074Z,6.45
2022-08-09T22:21:45.223Z,7.38
2022-08-09T22:24:24.129Z,6.57
2022-08-09T22:26:59.099Z,6.78
2022-08-09T22:29:46.399Z,7.32
2022-08-09T22:32:30.127Z,7.80
2022-08-09T22:35:06.334Z,7.38
2022-08-09T22:38:07.044Z,6.90
2022-08-09T22:40:35.185Z,7.03
2022-08-09T22:43:16.865Z,7.72
2022-08-09T22:48:17.101Z,7.25
2022-08-09T22:48:50.279Z,7.95
2022-08-09T22:51:24.120Z,8.27
2022-08-09T22:54:02.122Z,7.03
2022-08-09T22:56:34.047Z,8.00
2022-08-09T22:59:55.302Z,8.05
2022-08-09T23:02:05.757Z,7.97
2022-08-09T23:04:53.607Z,7.97
2022-08-09T23:08:23.283Z,7.45
2022-08-09T23:10:34.773Z,7.72
2022-08-09T23:13:02.105Z,8.13
2022-08-09T23:15:29.781Z,7.80
2022-08-09T23:18:03.968Z,7.53
2022-08-09T23:20:31.860Z,7.63
2022-08-09T23:22:59.004Z,8.13
2022-08-09T23:25:32.985Z,7.13
2022-08-09T23:28:15.995Z,7.28
2022-08-09T23:30:57.958Z,8.38
2022-08-09T23:33:26.096Z,8.52
2022-08-09T23:36:06.391Z,8.63
2022-08-09T23:38:35.161Z,9.18
2022-08-09T23:41:09.864Z,8.73
2022-08-09T23:43:37.354Z,8.98
2022-08-09T23:46:04.535Z,8.68
2022-08-09T23:48:37.922Z,8.20
2022-08-09T23:51:05.231Z,8.27
2022-08-09T23:53:37.876Z,8.70
2022-08-09T23:56:13.011Z,8.65
2022-08-09T23:58:40.206Z,9.20
